createdAt,value
2023-01-09T00:01:55.375Z,5.35
2023-01-09T00:04:21.767Z,5.35
2023-01-09T00:06:54.272Z,5.36
2023-01-09T00:09:21.791Z,5.35
2023-01-09T00:11:48.637Z,5.35
2023-01-09T00:14:18.997Z,5.39
2023-01-09T00:16:45.520Z,5.42
2023-01-09T00:19:12.296Z,5.45
2023-01-09T00:21:38.757Z,5.50
2023-01-09T00:24:05.685Z,5.51
2023-01-09T00:26:32.317Z,5.50
2023-01-09T00:28:59.012Z,5.47
2023-01-09T00:31:25.494Z,5.54
2023-01-09T00:33:59.534Z,5.63
2023-01-09T00:36:26.550Z,5.71
2023-01-09T00:38:53.015Z,5.78
2023-01-09T00:41:25.981Z,5.80
2023-01-09T00:43:55.698Z,5.84
2023-01-09T00:46:29.154Z,5.84
2023-01-09T00:48:55.752Z,5.84
2023-01-09T00:51:22.219Z,5.84
2023-01-09T00:53:49.511Z,5.83
2023-01-09T00:56:18.904Z,5.84
2023-01-09T00:58:45.750Z,5.90
2023-01-09T01:01:12.524Z,5.90
2023-01-09T01:03:39.328Z,5.94
2023-01-09T01:06:24.496Z,6.05
2023-01-09T01:08:50.936Z,6.12
2023-01-09T01:11:17.478Z,6.23
2023-01-09T01:13:43.881Z,6.33
2023-01-09T01:16:12.789Z,6.36
2023-01-09T01:18:39.865Z,6.44
2023-01-09T01:21:08.017Z,6.48
2023-01-09T01:23:34.856Z,6.53
2023-01-09T01:26:09.734Z,6.59
2023-01-09T01:28:36.300Z,6.59
2023-01-09T01:31:02.768Z,6.66
2023-01-09T01:33:29.266Z,6.74
2023-01-09T01:36:07.122Z,6.74
2023-01-09T01:38:34.272Z,6.79
2023-01-09T01:41:02.288Z,6.83
2023-01-09T01:43:34.352Z,6.85
2023-01-09T01:46:01.077Z,6.86
2023-01-09T01:48:29.341Z,6.89
2023-01-09T01:51:03.133Z,6.90
2023-01-09T01:53:41.611Z,6.91
2023-01-09T01:56:45.531Z,6.93
2023-01-09T01:59:15.392Z,6.94
2023-01-09T02:01:44.620Z,6.93
2023-01-09T02:04:11.457Z,6.96
2023-01-09T02:06:38.141Z,6.95
2023-01-09T02:09:05.967Z,6.95
2023-01-09T02:11:32.782Z,6.99
2023-01-09T02:14:01.703Z,7.05
2023-01-09T02:16:55.188Z,7.06
2023-01-09T02:19:48.810Z,7.05
2023-01-09T02:22:55.239Z,7.09
2023-01-09T02:25:46.603Z,7.21
2023-01-09T02:28:47.449Z,7.21
2023-01-09T02:31:15.738Z,7.17
2023-01-09T02:33:52.906Z,7.28
2023-01-09T02:36:33.267Z,7.28
2023-01-09T02:39:23.354Z,7.20
2023-01-09T02:41:56.511Z,7.18
2023-01-09T02:44:30.854Z,7.35
2023-01-09T02:47:08.546Z,7.40
2023-01-09T02:49:37.411Z,7.43
2023-01-09T02:52:41.109Z,7.48
2023-01-09T02:55:26.135Z,7.46
2023-01-09T02:58:01.961Z,7.43
2023-01-09T03:00:45.969Z,7.48
2023-01-09T03:03:34.732Z,7.50
2023-01-09T03:06:30.383Z,7.48
2023-01-09T03:09:01.594Z,7.51
2023-01-09T03:11:31.401Z,7.51
2023-01-09T03:14:04.224Z,7.49
2023-01-09T03:16:36.407Z,7.49
2023-01-09T03:19:06.823Z,7.52
2023-01-09T03:21:33.696Z,7.56
2023-01-09T03:24:01.497Z,7.55
2023-01-09T03:26:29.418Z,7.51
2023-01-09T03:28:56.493Z,7.49
2023-01-09T03:31:23.160Z,7.52
2023-01-09T03:33:49.582Z,7.52
2023-01-09T03:36:18.406Z,7.53
2023-01-09T03:38:44.924Z,7.53
2023-01-09T03:41:11.477Z,7.53
2023-01-09T03:43:37.903Z,7.54
2023-01-09T03:46:04.764Z,7.51
2023-01-09T03:48:31.543Z,7.46
2023-01-09T03:50:58.089Z,7.47
2023-01-09T03:53:25.812Z,7.47
2023-01-09T03:55:54.120Z,7.62
2023-01-09T03:58:21.859Z,7.57
2023-01-09T04:00:49.483Z,7.63
2023-01-09T04:03:17.613Z,7.71
2023-01-09T04:05:45.198Z,7.75
2023-01-09T04:08:11.625Z,7.78
2023-01-09T04:10:38.015Z,7.82
2023-01-09T04:13:04.462Z,7.84
2023-01-09T04:15:30.870Z,7.89
2023-01-09T04:17:57.306Z,7.82
2023-01-09T04:20:23.720Z,7.87
2023-01-09T04:22:50.288Z,7.94
2023-01-09T04:25:16.774Z,7.81
2023-01-09T04:27:43.181Z,7.84
2023-01-09T04:30:10.228Z,7.77
2023-01-09T04:32:36.663Z,7.78
2023-01-09T04:35:03.173Z,7.74
2023-01-09T04:37:29.643Z,7.67
2023-01-09T04:39:56.286Z,7.62
2023-01-09T04:42:22.843Z,7.62
2023-01-09T04:44:53.569Z,7.61
2023-01-09T04:47:21.151Z,7.59
2023-01-09T04:49:47.570Z,7.63
2023-01-09T04:52:14.091Z,7.59
2023-01-09T04:54:40.591Z,7.55
2023-01-09T04:57:07.250Z,7.53
2023-01-09T04:59:33.773Z,7.48
2023-01-09T05:02:00.364Z,7.50
2023-01-09T05:04:27.081Z,7.53
2023-01-09T05:06:53.711Z,7.53
2023-01-09T05:09:20.246Z,7.57
2023-01-09T05:11:46.662Z,7.57
2023-01-09T05:14:13.010Z,7.56
2023-01-09T05:16:39.456Z,7.54
2023-01-09T05:19:05.884Z,7.56
2023-01-09T05:21:32.368Z,7.63
2023-01-09T05:23:58.923Z,7.64
2023-01-09T05:26:25.442Z,7.68
2023-01-09T05:28:52.977Z,7.66
2023-01-09T05:31:20.324Z,7.64
2023-01-09T05:33:46.751Z,7.62
2023-01-09T05:36:13.155Z,7.68
2023-01-09T05:38:39.617Z,7.65
2023-01-09T05:41:06.247Z,7.65
2023-01-09T05:43:32.675Z,7.63
2023-01-09T05:45:59.415Z,7.63
2023-01-09T05:48:26.166Z,7.51
2023-01-09T05:50:52.628Z,7.49
2023-01-09T05:53:19.076Z,7.45
2023-01-09T05:55:45.467Z,7.38
2023-01-09T05:58:12.745Z,7.39
2023-01-09T06:00:39.205Z,7.33
2023-01-09T06:03:05.770Z,7.21
2023-01-09T06:05:32.334Z,7.11
2023-01-09T06:07:58.820Z,6.99
2023-01-09T06:10:25.299Z,6.96
2023-01-09T06:12:51.863Z,6.87
2023-01-09T06:15:20.332Z,6.78
2023-01-09T06:17:46.748Z,6.69
2023-01-09T06:20:13.257Z,6.64
2023-01-09T06:22:39.701Z,6.54
2023-01-09T06:25:06.448Z,6.47
2023-01-09T06:27:32.838Z,6.40
2023-01-09T06:29:59.231Z,6.33
2023-01-09T06:32:25.726Z,6.28
2023-01-09T06:34:52.256Z,6.32
2023-01-09T06:37:18.704Z,6.26
2023-01-09T06:39:45.235Z,6.26
2023-01-09T06:42:11.694Z,6.17
2023-01-09T06:44:38.108Z,6.14
2023-01-09T06:47:04.628Z,6.19
2023-01-09T06:49:31.036Z,6.12
2023-01-09T06:51:57.447Z,6.11
2023-01-09T06:54:24.000Z,5.97
2023-01-09T06:56:50.815Z,5.94
2023-01-09T06:59:17.363Z,5.87
2023-01-09T07:01:44.006Z,5.85
2023-01-09T07:04:11.173Z,5.81
2023-01-09T07:06:38.077Z,5.76
2023-01-09T07:09:06.258Z,5.74
2023-01-09T07:11:35.876Z,5.65
2023-01-09T07:14:02.267Z,5.58
2023-01-09T07:16:28.783Z,5.54
2023-01-09T07:18:55.190Z,5.53
2023-01-09T07:21:21.848Z,5.49
2023-01-09T07:23:48.304Z,5.46
2023-01-09T07:26:14.756Z,5.39
2023-01-09T07:28:41.232Z,5.41
2023-01-09T07:31:08.047Z,5.40
2023-01-09T07:33:35.107Z,5.41
2023-01-09T07:36:01.516Z,5.40
2023-01-09T07:38:27.894Z,5.42
2023-01-09T07:40:54.381Z,5.41
2023-01-09T07:43:20.827Z,5.37
2023-01-09T07:45:47.467Z,5.34
2023-01-09T07:48:13.913Z,5.33
2023-01-09T07:50:40.331Z,5.40
2023-01-09T07:53:06.736Z,5.57
2023-01-09T07:55:33.290Z,5.71
2023-01-09T07:57:59.715Z,5.94
2023-01-09T08:00:26.079Z,6.08
2023-01-09T08:02:53.619Z,6.17
2023-01-09T08:05:21.727Z,6.35
2023-01-09T08:07:50.529Z,6.41
2023-01-09T08:10:19.580Z,6.48
2023-01-09T08:12:46.912Z,6.51
2023-01-09T08:15:13.842Z,6.71
2023-01-09T08:17:44.803Z,6.76
2023-01-09T08:20:12.885Z,6.79
2023-01-09T08:22:41.945Z,6.85
2023-01-09T08:25:11.908Z,6.90
2023-01-09T08:27:38.722Z,6.94
2023-01-09T08:30:05.587Z,7.02
2023-01-09T08:32:32.000Z,7.04
2023-01-09T08:34:58.580Z,7.10
2023-01-09T08:37:25.004Z,7.08
2023-01-09T08:39:51.399Z,7.17
2023-01-09T08:42:36.624Z,7.21
2023-01-09T08:45:21.717Z,7.34
2023-01-09T08:47:48.403Z,7.43
2023-01-09T08:50:15.098Z,7.43
2023-01-09T08:52:41.518Z,7.43
2023-01-09T08:55:08.865Z,7.40
2023-01-09T08:57:35.338Z,7.44
2023-01-09T09:00:02.000Z,7.49
2023-01-09T09:02:30.616Z,7.55
2023-01-09T09:04:57.874Z,7.61
2023-01-09T09:07:26.938Z,7.63
2023-01-09T09:09:54.330Z,7.60
2023-01-09T09:12:21.037Z,7.68
2023-01-09T09:15:06.272Z,7.69
2023-01-09T09:17:33.478Z,7.65
2023-01-09T09:20:00.604Z,7.62
2023-01-09T09:22:27.464Z,7.65
2023-01-09T09:24:53.919Z,7.74
2023-01-09T09:27:20.436Z,7.76
2023-01-09T09:29:46.873Z,7.75
2023-01-09T09:32:13.280Z,7.76
2023-01-09T09:34:39.774Z,7.85
2023-01-09T09:37:06.251Z,7.86
2023-01-09T09:39:32.695Z,7.90
2023-01-09T09:42:23.795Z,7.97
2023-01-09T09:45:08.668Z,8.08
2023-01-09T09:47:43.213Z,8.29
2023-01-09T09:50:31.297Z,8.51
2023-01-09T09:53:10.921Z,8.56
2023-01-09T09:55:42.278Z,8.54
2023-01-09T09:58:23.397Z,8.65
2023-01-09T10:00:50.982Z,8.68
2023-01-09T10:03:34.289Z,8.81
2023-01-09T10:06:05.255Z,8.95
2023-01-09T10:08:55.677Z,8.94
2023-01-09T10:11:34.063Z,9.06
2023-01-09T10:14:13.182Z,9.00
2023-01-09T10:16:58.386Z,8.92
2023-01-09T10:19:43.705Z,8.92
2023-01-09T10:22:25.304Z,8.90
2023-01-09T10:25:03.777Z,8.92
2023-01-09T10:28:00.172Z,8.99
2023-01-09T10:30:39.723Z,9.08
2023-01-09T10:33:31.080Z,9.14
2023-01-09T10:36:13.125Z,9.04
2023-01-09T10:38:42.843Z,9.05
2023-01-09T10:41:22.986Z,9.07
2023-01-09T10:43:55.433Z,9.07
2023-01-09T10:46:29.644Z,9.15
2023-01-09T10:49:00.236Z,9.20
2023-01-09T10:51:39.558Z,9.19
2023-01-09T10:54:13.231Z,9.18
2023-01-09T10:56:42.318Z,9.29
2023-01-09T10:59:09.184Z,9.32
2023-01-09T11:01:38.380Z,9.33
2023-01-09T11:04:20.913Z,9.48
2023-01-09T11:06:51.215Z,9.60
2023-01-09T11:09:17.636Z,9.63
2023-01-09T11:11:45.337Z,9.61
2023-01-09T11:14:14.998Z,9.59
2023-01-09T11:16:52.541Z,9.59
2023-01-09T11:19:19.161Z,9.57
2023-01-09T11:21:45.674Z,9.51
2023-01-09T11:24:21.512Z,9.45
2023-01-09T11:26:51.805Z,9.39
2023-01-09T11:29:24.514Z,9.31
2023-01-09T11:31:53.820Z,9.23
2023-01-09T11:34:34.140Z,9.11
2023-01-09T11:37:08.393Z,9.05
2023-01-09T11:39:41.347Z,9.04
2023-01-09T11:42:19.135Z,8.97
2023-01-09T11:44:45.748Z,8.91
2023-01-09T11:47:35.765Z,8.89
2023-01-09T11:50:22.787Z,8.93
2023-01-09T11:53:13.330Z,8.92
2023-01-09T11:55:42.961Z,8.90
2023-01-09T11:58:21.101Z,8.87
2023-01-09T12:00:58.949Z,8.90
2023-01-09T12:03:37.502Z,8.82
2023-01-09T12:06:18.001Z,8.85
2023-01-09T12:08:50.446Z,8.87
2023-01-09T12:11:37.024Z,8.83
2023-01-09T12:14:13.657Z,8.84
2023-01-09T12:17:17.660Z,8.82
2023-01-09T12:20:00.065Z,8.99
2023-01-09T12:22:41.219Z,9.30
2023-01-09T12:25:34.958Z,9.42
2023-01-09T12:28:20.060Z,9.56
2023-01-09T12:30:46.747Z,9.75
2023-01-09T12:33:30.494Z,9.79
2023-01-09T12:36:15.773Z,9.87
2023-01-09T12:38:49.118Z,9.76
2023-01-09T12:41:24.800Z,9.70
2023-01-09T12:44:07.766Z,9.60
2023-01-09T12:46:46.083Z,9.64
2023-01-09T12:49:31.055Z,9.68
2023-01-09T12:52:05.303Z,9.81
2023-01-09T12:54:47.826Z,10.05
2023-01-09T12:57:21.631Z,10.09
2023-01-09T12:59:50.991Z,10.06
2023-01-09T13:02:28.442Z,9.96
2023-01-09T13:04:58.886Z,9.78
2023-01-09T13:07:30.711Z,9.67
2023-01-09T13:10:01.966Z,9.57
2023-01-09T13:12:30.181Z,9.46
2023-01-09T13:15:04.614Z,9.36
2023-01-09T13:17:31.015Z,9.25
2023-01-09T13:19:57.541Z,9.60
2023-01-09T13:22:26.325Z,9.69
2023-01-09T13:25:21.070Z,9.58
2023-01-09T13:28:16.277Z,9.38
2023-01-09T13:30:58.533Z,9.15
2023-01-09T13:33:29.755Z,9.04
2023-01-09T13:35:57.858Z,8.91
2023-01-09T13:38:26.382Z,8.91
2023-01-09T13:41:26.790Z,8.92
2023-01-09T13:43:55.397Z,8.87
2023-01-09T13:46:22.289Z,8.81
2023-01-09T13:48:48.767Z,8.84
2023-01-09T13:51:53.915Z,8.77
2023-01-09T13:55:01.641Z,8.77
2023-01-09T13:57:35.475Z,8.76
2023-01-09T14:00:17.106Z,8.73
2023-01-09T14:02:47.097Z,8.77
2023-01-09T14:05:37.128Z,8.78
2023-01-09T14:08:06.185Z,8.82
2023-01-09T14:10:38.086Z,8.85
2023-01-09T14:13:16.962Z,8.82
2023-01-09T14:15:49.474Z,8.76
2023-01-09T14:18:27.226Z,8.78
2023-01-09T14:21:00.033Z,8.70
2023-01-09T14:23:51.624Z,8.63
2023-01-09T14:26:24.878Z,8.60
2023-01-09T14:28:51.432Z,8.62
2023-01-09T14:31:31.129Z,8.60
2023-01-09T14:34:31.887Z,8.65
2023-01-09T14:36:59.856Z,8.65
2023-01-09T14:39:27.188Z,8.60
2023-01-09T14:42:15.917Z,8.59
2023-01-09T14:45:00.779Z,8.55
2023-01-09T14:47:47.422Z,8.57
2023-01-09T14:50:35.627Z,8.55
2023-01-09T14:53:13.402Z,8.52
2023-01-09T14:55:57.840Z,8.53
2023-01-09T14:58:29.634Z,8.52
2023-01-09T15:01:03.120Z,8.51
2023-01-09T15:03:40.258Z,8.50
2023-01-09T15:06:23.372Z,8.51
2023-01-09T15:08:55.670Z,8.48
2023-01-09T15:11:22.356Z,8.50
2023-01-09T15:13:50.500Z,8.51
2023-01-09T15:16:24.811Z,8.51
2023-01-09T15:18:54.874Z,8.49
2023-01-09T15:21:32.834Z,8.49
2023-01-09T15:24:21.546Z,8.51
2023-01-09T15:27:19.192Z,8.51
2023-01-09T15:29:45.712Z,8.50
2023-01-09T15:32:24.300Z,8.45
2023-01-09T15:34:50.881Z,8.41
2023-01-09T15:37:27.557Z,8.48
2023-01-09T15:39:54.894Z,8.48
2023-01-09T15:42:45.927Z,8.46
2023-01-09T15:45:26.545Z,8.43
2023-01-09T15:47:53.599Z,8.41
2023-01-09T15:50:30.386Z,8.39
2023-01-09T15:52:57.021Z,8.48
2023-01-09T15:55:36.991Z,8.46
2023-01-09T15:58:05.282Z,8.42
2023-01-09T16:00:41.448Z,8.37
2023-01-09T16:03:16.321Z,8.36
2023-01-09T16:06:29.062Z,8.34
2023-01-09T16:08:57.919Z,8.32
2023-01-09T16:11:30.671Z,8.28
2023-01-09T16:14:00.662Z,8.28
2023-01-09T16:16:33.953Z,8.27
2023-01-09T16:19:00.481Z,8.28
2023-01-09T16:21:37.399Z,8.30
2023-01-09T16:24:08.620Z,8.34
2023-01-09T16:26:35.084Z,8.38
2023-01-09T16:29:27.495Z,8.41
2023-01-09T16:32:06.424Z,8.48
2023-01-09T16:34:36.317Z,8.49
2023-01-09T16:37:04.982Z,8.56
2023-01-09T16:39:31.474Z,8.50
2023-01-09T16:42:16.489Z,8.48
2023-01-09T16:44:43.020Z,8.46
2023-01-09T16:47:12.763Z,8.38
2023-01-09T16:49:39.383Z,8.39
2023-01-09T16:52:17.166Z,8.36
2023-01-09T16:54:44.382Z,8.28
2023-01-09T16:57:15.780Z,8.21
2023-01-09T16:59:42.272Z,8.19
2023-01-09T17:02:37.600Z,8.31
2023-01-09T17:05:04.362Z,8.31
2023-01-09T17:07:31.109Z,8.26
2023-01-09T17:09:57.608Z,8.26
2023-01-09T17:12:24.864Z,8.21
2023-01-09T17:14:51.359Z,8.26
2023-01-09T17:17:18.019Z,8.22
2023-01-09T17:19:46.705Z,8.22
2023-01-09T17:22:13.978Z,8.23
2023-01-09T17:24:59.055Z,8.28
2023-01-09T17:27:51.247Z,8.32
2023-01-09T17:30:19.273Z,8.31
2023-01-09T17:32:46.869Z,8.35
2023-01-09T17:35:14.019Z,8.39
2023-01-09T17:37:40.436Z,8.36
2023-01-09T17:40:21.412Z,8.43
2023-01-09T17:42:47.850Z,8.45
2023-01-09T17:45:15.444Z,8.52
2023-01-09T17:47:42.054Z,8.42
2023-01-09T17:50:18.177Z,8.39
2023-01-09T17:52:44.661Z,8.36
2023-01-09T17:55:11.118Z,8.35
2023-01-09T17:57:37.841Z,8.34
2023-01-09T18:00:06.477Z,8.27
2023-01-09T18:02:33.303Z,8.27
2023-01-09T18:05:00.058Z,8.29
2023-01-09T18:07:26.611Z,8.37
2023-01-09T18:09:53.609Z,8.34
2023-01-09T18:12:20.312Z,8.28
2023-01-09T18:14:47.904Z,8.28
2023-01-09T18:17:14.428Z,8.52
2023-01-09T18:19:40.952Z,9.03
2023-01-09T18:22:07.404Z,9.34
2023-01-09T18:24:34.049Z,9.26
2023-01-09T18:27:00.501Z,9.04
2023-01-09T18:29:27.135Z,8.80
2023-01-09T18:31:53.766Z,8.61
2023-01-09T18:34:20.547Z,8.51
2023-01-09T18:36:47.245Z,8.44
2023-01-09T18:39:14.145Z,8.46
2023-01-09T18:41:40.568Z,8.35
2023-01-09T18:44:07.559Z,8.30
2023-01-09T18:46:34.008Z,8.25
2023-01-09T18:49:04.303Z,8.15
2023-01-09T18:51:31.892Z,8.09
2023-01-09T18:53:58.903Z,7.99
2023-01-09T18:56:25.463Z,7.94
2023-01-09T18:58:57.190Z,7.90
2023-01-09T19:01:24.492Z,7.88
2023-01-09T19:03:51.033Z,7.81
2023-01-09T19:06:17.481Z,7.84
2023-01-09T19:08:44.085Z,7.89
2023-01-09T19:11:10.636Z,7.94
2023-01-09T19:13:37.635Z,8.03
2023-01-09T19:16:05.097Z,8.02
2023-01-09T19:18:36.780Z,8.00
2023-01-09T19:21:09.506Z,7.98
2023-01-09T19:23:35.896Z,7.96
2023-01-09T19:26:06.090Z,7.86
2023-01-09T19:28:32.648Z,7.80
2023-01-09T19:30:59.125Z,7.75
2023-01-09T19:33:25.535Z,7.72
2023-01-09T19:35:52.886Z,7.71
2023-01-09T19:38:20.494Z,7.73
2023-01-09T19:40:47.075Z,7.75
2023-01-09T19:43:25.752Z,7.78
2023-01-09T19:45:54.042Z,7.74
2023-01-09T19:48:21.650Z,7.74
2023-01-09T19:50:48.170Z,7.73
2023-01-09T19:53:15.048Z,7.75
2023-01-09T19:55:41.785Z,7.78
2023-01-09T19:58:08.242Z,7.80
2023-01-09T20:00:35.305Z,7.81
2023-01-09T20:03:01.791Z,7.88
2023-01-09T20:05:28.219Z,7.92
2023-01-09T20:07:56.452Z,7.89
2023-01-09T20:10:23.043Z,7.91
2023-01-09T20:12:51.495Z,7.94
2023-01-09T20:15:17.914Z,7.88
2023-01-09T20:17:44.357Z,7.91
2023-01-09T20:20:11.059Z,7.93
2023-01-09T20:22:37.465Z,7.94
2023-01-09T20:25:04.158Z,7.96
2023-01-09T20:27:30.717Z,7.98
2023-01-09T20:29:57.091Z,7.93
2023-01-09T20:32:23.639Z,8.05
2023-01-09T20:34:50.057Z,8.06
2023-01-09T20:37:16.447Z,8.03
2023-01-09T20:39:43.025Z,8.04
2023-01-09T20:42:09.427Z,8.06
2023-01-09T20:44:35.821Z,8.07
2023-01-09T20:47:02.447Z,8.09
2023-01-09T20:49:28.837Z,8.07
2023-01-09T20:51:55.282Z,8.06
2023-01-09T20:54:22.245Z,8.07
2023-01-09T20:56:48.693Z,8.09
2023-01-09T20:59:17.134Z,8.13
2023-01-09T21:01:43.661Z,8.12
2023-01-09T21:04:10.167Z,8.11
2023-01-09T21:06:36.815Z,8.16
2023-01-09T21:09:04.066Z,8.17
2023-01-09T21:11:30.821Z,8.08
2023-01-09T21:13:57.460Z,8.12
2023-01-09T21:16:24.970Z,8.06
2023-01-09T21:18:52.517Z,8.06
2023-01-09T21:21:21.794Z,8.08
2023-01-09T21:23:53.908Z,8.07
2023-01-09T21:26:22.584Z,8.02
2023-01-09T21:28:54.822Z,8.01
2023-01-09T21:31:25.704Z,7.94
2023-01-09T21:33:54.406Z,7.77
2023-01-09T21:36:21.817Z,7.72
2023-01-09T21:38:48.546Z,7.64
2023-01-09T21:41:37.133Z,7.70
2023-01-09T21:44:22.111Z,7.54
2023-01-09T21:46:51.565Z,7.39
2023-01-09T21:49:19.464Z,7.44
2023-01-09T21:51:45.910Z,7.49
2023-01-09T21:54:12.320Z,7.50
2023-01-09T21:56:38.700Z,7.49
2023-01-09T21:59:05.132Z,7.56
2023-01-09T22:01:31.579Z,7.57
2023-01-09T22:03:58.354Z,7.55
2023-01-09T22:06:25.144Z,7.37
2023-01-09T22:08:52.890Z,7.35
2023-01-09T22:11:19.312Z,7.36
2023-01-09T22:13:49.495Z,7.26
2023-01-09T22:16:16.366Z,7.22
2023-01-09T22:18:42.767Z,7.17
2023-01-09T22:21:09.418Z,7.18
2023-01-09T22:23:35.998Z,7.13
2023-01-09T22:26:14.014Z,7.19
2023-01-09T22:28:41.225Z,7.26
2023-01-09T22:31:09.566Z,7.28
2023-01-09T22:33:36.523Z,7.29
2023-01-09T22:36:08.063Z,7.32
2023-01-09T22:38:34.729Z,7.37
2023-01-09T22:41:01.283Z,7.37
2023-01-09T22:43:28.727Z,7.36
2023-01-09T22:46:02.305Z,7.36
2023-01-09T22:48:31.872Z,7.29
2023-01-09T22:51:00.311Z,7.20
2023-01-09T22:53:26.772Z,7.11
2023-01-09T22:56:03.687Z,7.03
2023-01-09T22:58:32.116Z,6.90
2023-01-09T23:00:59.026Z,6.85
2023-01-09T23:03:26.097Z,6.83
2023-01-09T23:06:11.370Z,6.83
2023-01-09T23:08:38.112Z,6.85
2023-01-09T23:11:07.440Z,6.86
2023-01-09T23:13:34.001Z,6.85
2023-01-09T23:16:01.877Z,6.83
2023-01-09T23:18:28.432Z,6.74
2023-01-09T23:20:58.714Z,6.71
2023-01-09T23:23:26.443Z,6.65
2023-01-09T23:25:55.465Z,6.61
2023-01-09T23:28:22.108Z,6.56
2023-01-09T23:30:48.935Z,6.53
2023-01-09T23:33:20.283Z,6.52
2023-01-09T23:35:47.033Z,6.48
2023-01-09T23:38:13.813Z,6.48
2023-01-09T23:40:44.108Z,6.49
2023-01-09T23:43:11.555Z,6.49
2023-01-09T23:45:42.871Z,6.47
2023-01-09T23:48:12.256Z,6.39
2023-01-09T23:50:39.184Z,6.32
2023-01-09T23:53:05.674Z,6.31
2023-01-09T23:55:32.134Z,6.25
2023-01-09T23:57:58.727Z,6.23
